Time;durP1;ratioP1;P1;durP2;ratioP2;P2;SDS_P1;SDS_P2;PMS_P1;PMS_P2;Temp;Humidity;BMP_temperature;BMP_pressure;BME280_temperature;BME280_humidity;BME280_pressure;Samples;Min_cycle;Max_cycle;Signal;HPM_P1;HPM_P2
2023/01/03 00:00:42;;;;;;;;;27.75;22.50;;;;;8.93;78.37;102346.06;5077799;28;45298;-51
2023/01/03 00:03:07;;;;;;;;;30.25;26.75;;;;;8.85;78.67;102343.91;5077607;27;45307;-52
2023/01/03 00:05:34;;;;;;;;;30.75;28.25;;;;;8.91;78.27;102353.28;5077668;27;45354;-49
2023/01/03 00:08:00;;;;;;;;;28.50;23.50;;;;;8.86;78.48;102345.59;5093130;27;46201;-52
2023/01/03 00:10:25;;;;;;;;;36.50;27.00;;;;;8.82;78.37;102345.91;5077580;27;45649;-47
2023/01/03 00:12:50;;;;;;;;;27.25;25.25;;;;;8.80;78.46;102353.09;5077308;27;45488;-47
2023/01/03 00:15:16;;;;;;;;;31.50;28.50;;;;;8.83;78.60;102352.91;5077552;27;45353;-50
2023/01/03 00:17:41;;;;;;;;;27.00;24.50;;;;;8.80;78.87;102367.19;5077215;27;47003;-47
2023/01/03 00:20:08;;;;;;;;;39.50;31.25;;;;;8.73;78.73;102352.63;5077102;27;45422;-48
2023/01/03 00:22:34;;;;;;;;;33.50;25.25;;;;;8.72;79.40;102349.13;5077461;27;45398;-53
2023/01/03 00:25:00;;;;;;;;;26.25;24.00;;;;;8.73;78.62;102368.56;5077343;27;45280;-50
2023/01/03 00:27:26;;;;;;;;;22.50;20.00;;;;;8.70;79.49;102353.66;5077093;27;46157;-47
2023/01/03 00:29:51;;;;;;;;;32.50;23.75;;;;;8.75;78.33;102350.72;5077235;28;45343;-48
2023/01/03 00:32:16;;;;;;;;;35.50;27.75;;;;;8.72;78.56;102353.56;5077335;27;45390;-49
2023/01/03 00:34:43;;;;;;;;;26.50;25.50;;;;;8.69;78.64;102356.44;5077294;27;45328;-51
2023/01/03 00:37:09;;;;;;;;;27.25;22.50;;;;;8.67;78.77;102342.38;5077109;27;48252;-49
2023/01/03 00:39:34;;;;;;;;;33.00;23.00;;;;;8.68;78.84;102344.97;5077025;27;45271;-51
2023/01/03 00:42:00;;;;;;;;;29.50;23.25;;;;;8.67;78.72;102348.53;5077224;27;45181;-50
2023/01/03 00:44:25;;;;;;;;;24.25;23.00;;;;;8.64;78.43;102345.25;5077432;27;45409;-53
2023/01/03 00:46:51;;;;;;;;;30.00;26.50;;;;;8.64;79.51;102346.09;5076865;27;46127;-49
2023/01/03 00:49:16;;;;;;;;;29.75;22.50;;;;;8.62;78.82;102349.78;5076688;27;45382;-49
2023/01/03 00:51:42;;;;;;;;;27.00;24.00;;;;;8.59;78.77;102342.84;5077152;27;45385;-50
2023/01/03 00:54:09;;;;;;;;;23.00;18.00;;;;;8.63;79.08;102347.03;5077294;27;45432;-49
2023/01/03 00:56:38;;;;;;;;;24.75;21.50;;;;;8.61;79.01;102342.78;5076805;27;46372;-48
2023/01/03 00:59:05;;;;;;;;;25.00;22.75;;;;;8.61;79.49;102348.94;5077937;27;45330;-48
2023/01/03 01:01:39;;;;;;;;;18.50;16.00;;;;;8.59;78.78;102345.50;5080631;27;45658;-50
2023/01/03 01:04:11;;;;;;;;;23.50;19.75;;;;;8.60;78.86;102341.94;5080948;27;45220;-54
2023/01/03 01:06:45;;;;;;;;;20.50;18.50;;;;;8.59;79.15;102347.31;5080419;27;46369;-50
2023/01/03 01:09:13;;;;;;;;;17.75;16.50;;;;;8.59;79.68;102345.50;5080449;27;45446;-49
2023/01/03 01:11:39;;;;;;;;;25.25;18.50;;;;;8.57;79.40;102343.91;5080680;27;45210;-48
2023/01/03 01:14:18;;;;;;;;;14.00;14.00;;;;;8.56;79.25;102345.72;5080632;27;45311;-54
2023/01/03 01:16:46;;;;;;;;;27.25;19.50;;;;;8.58;78.79;102337.66;5080557;27;47244;-47
2023/01/03 01:19:11;;;;;;;;;21.25;18.25;;;;;8.53;78.75;102345.06;5080490;27;45382;-55
2023/01/03 01:21:36;;;;;;;;;25.00;18.00;;;;;8.53;79.48;102361.81;5080275;27;45188;-56
2023/01/03 01:24:02;;;;;;;;;24.75;15.00;;;;;8.54;79.12;102352.91;5080731;27;45314;-49
2023/01/03 01:26:27;;;;;;;;;15.25;14.00;;;;;8.51;78.64;102347.78;5080408;27;46077;-53
2023/01/03 01:28:53;;;;;;;;;17.00;17.00;;;;;8.56;79.40;102351.03;5080451;27;45169;-53
2023/01/03 01:31:21;;;;;;;;;21.25;17.00;;;;;8.55;79.18;102354.59;5080456;27;45237;-51
2023/01/03 01:33:47;;;;;;;;;18.25;16.25;;;;;8.53;78.75;102359.16;5080157;27;45302;-52
2023/01/03 01:36:21;;;;;;;;;25.25;17.00;;;;;8.55;78.50;102362.56;5079921;27;45407;-55
2023/01/03 01:38:52;;;;;;;;;19.25;17.50;;;;;8.56;79.19;102358.13;5080003;27;45333;-53
2023/01/03 01:44:36;;;;;;;;;16.25;14.00;;;;;8.58;78.89;102361.53;5080183;27;45469;-52
2023/01/03 01:46:50;;;;;;;;;18.25;16.75;;;;;8.56;79.14;102352.81;5079811;27;45724;-51
2023/01/03 01:49:24;;;;;;;;;20.25;18.00;;;;;8.56;79.29;102369.59;5079470;28;45268;-53
2023/01/03 01:51:50;;;;;;;;;18.75;16.75;;;;;8.55;78.63;102367.88;5079928;27;45311;-51
2023/01/03 01:54:16;;;;;;;;;14.50;12.75;;;;;8.56;78.54;102356.34;5079693;27;45463;-52
2023/01/03 01:56:46;;;;;;;;;17.25;14.00;;;;;8.57;78.46;102360.69;5079547;27;46395;-53
2023/01/03 01:59:12;;;;;;;;;24.00;15.25;;;;;8.55;78.93;102367.88;5078722;27;45369;-55
2023/01/03 02:01:41;;;;;;;;;18.75;15.00;;;;;8.55;78.14;102369.66;5079661;27;45543;-52
2023/01/03 02:04:16;;;;;;;;;21.25;17.50;;;;;8.55;78.32;102381.13;5079787;27;45352;-53
2023/01/03 02:06:42;;;;;;;;;14.00;13.50;;;;;8.46;78.16;102360.47;5079165;27;45917;-53
2023/01/03 02:09:07;;;;;;;;;14.50;14.50;;;;;8.56;78.79;102377.56;5079549;27;45393;-52
2023/01/03 02:11:39;;;;;;;;;17.50;13.75;;;;;8.55;77.99;102378.47;5078728;27;45469;-53
2023/01/03 02:14:16;;;;;;;;;19.75;13.75;;;;;8.55;77.81;102367.00;5079727;27;45316;-54
2023/01/03 02:17:13;;;;;;;;;18.50;15.00;;;;;8.54;78.57;102383.88;5079085;27;46856;-52
2023/01/03 02:19:41;;;;;;;;;17.25;15.75;;;;;8.53;78.39;102384.84;5079237;27;45380;-53
2023/01/03 02:22:22;;;;;;;;;20.25;15.25;;;;;8.52;78.65;102384.00;5079325;27;45433;-53
2023/01/03 02:24:53;;;;;;;;;16.00;13.75;;;;;8.52;77.40;102385.78;5079405;27;45418;-54
2023/01/03 02:27:48;;;;;;;;;22.25;17.00;;;;;8.52;78.54;102381.34;5079057;28;46075;-51
2023/01/03 02:30:43;;;;;;;;;19.50;17.50;;;;;8.50;78.45;102389.38;5079006;27;45241;-52
2023/01/03 02:33:31;;;;;;;;;15.75;13.00;;;;;8.48;78.73;102387.78;5078917;27;45352;-54
2023/01/03 02:36:02;;;;;;;;;14.50;13.00;;;;;8.43;79.21;102384.53;5079184;27;45415;-53
2023/01/03 02:38:38;;;;;;;;;12.75;12.00;;;;;8.36;79.14;102383.16;5078990;27;45254;-53
2023/01/03 02:41:21;;;;;;;;;14.50;11.25;;;;;8.42;78.68;102398.72;5078898;27;45327;-52
2023/01/03 02:43:58;;;;;;;;;18.00;12.25;;;;;8.41;78.28;102399.69;5079019;27;45165;-52
2023/01/03 02:46:38;;;;;;;;;13.50;13.50;;;;;8.39;78.94;102388.31;5079144;27;45413;-53
2023/01/03 02:49:15;;;;;;;;;22.00;13.00;;;;;8.40;78.88;102387.38;5078457;27;46008;-52
2023/01/03 02:51:45;;;;;;;;;13.75;12.75;;;;;8.35;78.17;102389.44;5078614;27;45421;-51
2023/01/03 02:54:17;;;;;;;;;15.00;13.25;;;;;8.33;78.85;102400.09;5078855;28;45440;-51
2023/01/03 02:56:50;;;;;;;;;15.00;12.00;;;;;8.32;78.33;102392.25;5079067;27;45382;-52
2023/01/03 02:59:21;;;;;;;;;16.50;14.25;;;;;8.29;78.47;102387.97;5078635;27;45516;-54
2023/01/03 03:01:50;;;;;;;;;14.25;14.25;;;;;8.28;79.34;102388.94;5078457;27;45348;-54
2023/01/03 03:04:17;;;;;;;;;13.75;13.00;;;;;8.22;79.26;102378.69;5078619;27;45460;-53
2023/01/03 03:07:06;;;;;;;;;18.25;13.00;;;;;8.19;79.00;102379.72;5078635;27;45343;-53
2023/01/03 03:09:32;;;;;;;;;13.67;10.67;;;;;8.17;80.09;102392.19;5078272;27;46314;-52
2023/01/03 03:14:49;;;;;;;;;20.50;12.50;;;;;8.18;79.26;102387.78;5078459;28;45368;-50
2023/01/03 03:17:23;;;;;;;;;14.00;12.00;;;;;8.21;79.36;102388.41;5078623;27;45398;-51
2023/01/03 03:25:42;;;;;;;;;13.00;10.50;;;;;8.20;80.17;102383.22;5078220;27;45433;-49
2023/01/03 03:31:05;;;;;;;;;12.50;10.50;;;;;8.10;80.24;102374.13;5077880;27;45813;-53
2023/01/03 03:33:34;;;;;;;;;10.75;10.25;;;;;8.07;80.08;102383.09;5078063;27;45308;-53
2023/01/03 03:36:07;;;;;;;;;11.00;10.75;;;;;8.14;80.18;102386.25;5077953;27;45252;-54
2023/01/03 03:38:38;;;;;;;;;16.25;13.00;;;;;8.15;79.97;102380.84;5093462;27;45346;-50
2023/01/03 03:47:29;;;;;;;;;14.50;10.00;;;;;8.16;80.24;102397.59;5077856;28;45362;-51
2023/01/03 03:50:03;;;;;;;;;12.50;10.00;;;;;8.14;79.70;102389.75;5077934;27;45223;-53
2023/01/03 03:52:32;;;;;;;;;10.00;10.00;;;;;8.08;80.71;102381.28;5077454;27;46225;-51
2023/01/03 03:55:08;;;;;;;;;12.50;11.00;;;;;8.10;80.56;102387.38;5077801;27;45352;-52
2023/01/03 03:57:49;;;;;;;;;12.50;9.25;;;;;8.08;79.59;102373.34;5077753;27;45302;-53
2023/01/03 04:00:20;;;;;;;;;9.50;9.50;;;;;8.13;80.95;102384.53;5077875;27;45381;-53
2023/01/03 04:02:46;;;;;;;;;11.75;9.25;;;;;8.14;80.16;102381.81;5077542;27;47145;-51
2023/01/03 04:05:15;;;;;;;;;17.75;14.75;;;;;8.20;80.53;102386.72;5077624;27;45271;-52
2023/01/03 04:07:40;;;;;;;;;12.00;8.00;;;;;8.25;80.58;102392.59;5077481;27;45438;-51
2023/01/03 04:10:08;;;;;;;;;19.75;13.00;;;;;8.33;80.67;102397.44;5077641;27;45324;-53
2023/01/03 04:12:33;;;;;;;;;13.25;13.25;;;;;8.36;79.87;102393.78;5077500;27;47204;-53
2023/01/03 04:14:59;;;;;;;;;16.25;9.00;;;;;8.41;80.45;102397.88;5077447;27;45556;-52
2023/01/03 04:17:24;;;;;;;;;10.75;10.25;;;;;8.49;80.49;102397.44;5077713;27;45410;-49
2023/01/03 04:19:49;;;;;;;;;15.00;12.50;;;;;8.47;79.78;102388.72;5077623;27;45273;-53
2023/01/03 04:22:15;;;;;;;;;13.25;12.75;;;;;8.55;79.95;102397.03;5077473;27;45351;-52
2023/01/03 04:24:40;;;;;;;;;10.25;10.25;;;;;8.56;78.66;102404.06;5077205;27;45348;-48
2023/01/03 04:27:05;;;;;;;;;14.50;10.00;;;;;8.59;79.90;102401.22;5077290;27;45241;-52
2023/01/03 04:29:31;;;;;;;;;12.00;9.50;;;;;8.59;79.57;102403.88;5077576;27;45433;-52
2023/01/03 04:31:56;;;;;;;;;13.00;8.50;;;;;8.61;80.02;102406.44;5077071;27;46422;-46
2023/01/03 04:34:22;;;;;;;;;13.25;11.00;;;;;8.68;79.93;102405.09;5076344;27;45831;-50
2023/01/03 04:36:47;;;;;;;;;18.25;10.50;;;;;8.70;79.74;102406.72;5077310;27;45295;-48
2023/01/03 04:39:12;;;;;;;;;12.00;9.50;;;;;8.66;78.73;102405.22;5077458;27;45173;-52
2023/01/03 04:41:37;;;;;;;;;12.50;10.25;;;;;8.68;79.26;102408.63;5077299;27;46130;-50
2023/01/03 04:44:03;;;;;;;;;8.00;6.00;;;;;8.78;79.69;102413.38;5077207;27;45238;-53
2023/01/03 04:46:30;;;;;;;;;10.00;10.00;;;;;8.78;78.87;102414.22;5077323;27;45264;-52
2023/01/03 04:48:55;;;;;;;;;12.75;10.00;;;;;8.72;79.34;102415.47;5077292;27;45212;-47
2023/01/03 04:51:21;;;;;;;;;12.25;10.75;;;;;8.73;78.95;102422.47;5076595;27;46212;-52
2023/01/03 04:53:46;;;;;;;;;14.00;10.00;;;;;8.73;79.65;102416.31;5076983;27;45537;-48
2023/01/03 04:56:11;;;;;;;;;12.50;9.00;;;;;8.76;79.46;102421.41;5076942;27;45361;-52
2023/01/03 04:58:37;;;;;;;;;10.00;7.67;;;;;8.75;79.19;102414.41;5077152;27;45400;-52
2023/01/03 05:01:04;;;;;;;;;11.25;11.25;;;;;8.78;79.45;102421.34;5076795;27;46170;-50
2023/01/03 05:03:30;;;;;;;;;11.75;10.00;;;;;8.72;79.45;102409.28;5076875;27;45449;-53
2023/01/03 05:06:04;;;;;;;;;16.50;8.50;;;;;8.85;78.73;102430.59;5076088;27;45280;-51
2023/01/03 05:08:29;;;;;;;;;9.00;9.00;;;;;8.88;79.38;102430.44;5076981;27;45615;-50
2023/01/03 05:10:55;;;;;;;;;15.00;9.75;;;;;8.92;79.40;102431.94;5076623;27;46917;-50
2023/01/03 05:13:20;;;;;;;;;11.00;10.75;;;;;8.92;79.38;102431.94;5076682;27;45464;-52
2023/01/03 05:15:46;;;;;;;;;11.00;7.00;;;;;8.95;79.33;102432.59;5076881;27;45447;-54
2023/01/03 05:18:11;;;;;;;;;9.67;9.00;;;;;8.98;79.08;102426.28;5077033;27;45245;-52
2023/01/03 05:26:18;;;;;;;;;11.33;9.00;;;;;9.04;78.78;102436.50;5076662;27;45313;-54
2023/01/03 05:28:48;;;;;;;;;11.67;8.33;;;;;9.05;78.90;102438.19;5076818;28;45227;-54
2023/01/03 05:31:13;;;;;;;;;14.00;9.33;;;;;9.07;79.37;102435.47;5076566;27;45409;-51
2023/01/03 05:33:40;;;;;;;;;9.00;7.00;;;;;9.13;78.96;102441.22;5075064;27;45502;-52
2023/01/03 05:36:06;;;;;;;;;7.67;5.67;;;;;9.14;78.52;102440.31;5075118;28;45284;-56
2023/01/03 05:38:32;;;;;;;;;11.67;9.33;;;;;9.17;79.06;102434.78;5076768;27;45464;-51
2023/01/03 05:40:58;;;;;;;;;10.33;7.33;;;;;9.06;79.03;102428.44;5076039;27;45763;-49
2023/01/03 05:43:23;;;;;;;;;6.67;5.33;;;;;9.12;79.16;102438.69;5076421;27;45318;-53
2023/01/03 05:45:50;;;;;;;;;7.00;5.67;;;;;9.14;78.79;102440.31;5077511;27;45257;-50
2023/01/03 05:48:16;;;;;;;;;6.67;6.67;;;;;9.13;78.24;102437.72;5079984;27;45346;-53
2023/01/03 05:50:41;;;;;;;;;6.00;6.00;;;;;9.11;78.46;102440.47;5079754;27;46139;-52
2023/01/03 05:53:07;;;;;;;;;11.00;6.00;;;;;9.07;78.99;102441.63;5079653;27;45329;-53
2023/01/03 05:55:35;;;;;;;;;6.00;6.00;;;;;9.06;78.91;102437.28;5080103;27;45476;-52
2023/01/03 05:58:00;;;;;;;;;9.00;6.67;;;;;9.04;78.87;102436.50;5080062;27;45316;-52
2023/01/03 06:00:26;;;;;;;;;10.00;9.33;;;;;9.05;79.07;102437.34;5079362;27;48196;-54
2023/01/03 06:02:51;;;;;;;;;6.00;5.67;;;;;9.06;78.63;102441.69;5079726;27;45422;-54
2023/01/03 06:05:16;;;;;;;;;9.00;6.33;;;;;9.00;79.33;102440.28;5079766;27;45587;-53
2023/01/03 06:07:42;;;;;;;;;7.00;6.67;;;;;8.94;78.14;102441.53;5079656;27;45516;-51
2023/01/03 06:10:07;;;;;;;;;9.00;8.33;;;;;8.91;78.73;102441.72;5079561;27;47423;-52
2023/01/03 06:12:33;;;;;;;;;11.33;6.00;;;;;8.93;79.00;102450.44;5079442;27;45254;-50
2023/01/03 06:14:58;;;;;;;;;10.67;6.00;;;;;8.95;78.99;102451.19;5079530;27;45293;-50
2023/01/03 06:20:08;;;;;;;;;12.33;6.67;;;;;8.87;79.23;102449.97;5079523;27;45431;-52
2023/01/03 06:22:33;;;;;;;;;8.33;6.00;;;;;8.83;78.87;102454.59;5079302;27;45214;-53
2023/01/03 06:24:58;;;;;;;;;11.33;6.67;;;;;8.80;79.18;102460.06;5079447;27;45415;-46
2023/01/03 06:27:24;;;;;;;;;3.33;3.33;;;;;8.78;79.35;102463.78;5079567;27;45339;-53
2023/01/03 06:29:49;;;;;;;;;8.00;6.00;;;;;8.79;78.71;102462.84;5079301;27;47026;-50
2023/01/03 06:32:14;;;;;;;;;6.33;6.00;;;;;8.80;79.54;102472.50;5094518;27;45411;-50
2023/01/03 06:34:40;;;;;;;;;9.00;6.33;;;;;8.81;79.49;102484.84;5079627;27;45236;-51
2023/01/03 06:37:05;;;;;;;;;8.67;8.00;;;;;8.77;79.11;102478.00;5079294;27;45374;-49
2023/01/03 06:39:32;;;;;;;;;10.00;5.33;;;;;8.77;78.75;102483.31;5079042;28;46134;-52
2023/01/03 06:41:58;;;;;;;;;8.33;6.00;;;;;8.70;79.14;102469.56;5078903;27;45360;-54
2023/01/03 06:44:23;;;;;;;;;5.67;3.00;;;;;8.71;79.61;102473.91;5079164;27;45472;-51
2023/01/03 06:55:01;;;;;;;;;9.33;7.00;;;;;8.81;78.93;102487.50;5078943;28;45436;-52
2023/01/03 06:57:27;;;;;;;;;9.00;5.00;;;;;8.80;79.26;102481.31;5078647;27;45368;-51
2023/01/03 06:59:52;;;;;;;;;8.00;6.00;;;;;8.80;79.80;102491.91;5078654;27;45519;-55
2023/01/03 07:02:17;;;;;;;;;10.33;9.00;;;;;8.80;78.83;102491.06;5078714;27;45389;-54
2023/01/03 07:04:42;;;;;;;;;9.67;6.33;;;;;8.83;79.05;102497.06;5078924;27;45299;-52
2023/01/03 07:07:08;;;;;;;;;10.33;7.00;;;;;8.85;79.49;102491.63;5078892;27;45456;-53
2023/01/03 07:09:33;;;;;;;;;14.00;9.00;;;;;8.85;78.97;102491.63;5078696;27;45930;-53
2023/01/03 07:13:57;;;;;;;;;8.33;6.33;;;;;8.80;78.75;102491.06;5078539;28;48710;-54
2023/01/03 07:14:44;;;;;;;;;5.67;5.67;;;;;8.82;79.17;102494.50;5077629;28;45427;-54
2023/01/03 07:17:09;;;;;;;;;11.33;7.33;;;;;8.79;79.64;102494.69;5078531;27;45427;-54
2023/01/03 07:19:34;;;;;;;;;6.67;5.67;;;;;8.70;78.71;102499.59;5078305;27;46447;-55
2023/01/03 07:21:59;;;;;;;;;9.67;6.00;;;;;8.70;79.38;102502.25;5077152;27;45648;-55
2023/01/03 07:24:25;;;;;;;;;11.00;9.00;;;;;8.74;78.70;102513.53;5078475;27;46125;-50
2023/01/03 07:26:50;;;;;;;;;15.50;11.25;;;;;8.70;79.91;102504.91;5078875;27;45367;-54
2023/01/03 07:29:15;;;;;;;;;16.00;12.00;;;;;8.73;80.24;102510.03;5078120;27;47225;-51
2023/01/03 07:31:41;;;;;;;;;15.75;7.00;;;;;8.75;79.68;102510.78;5078472;27;45417;-54
2023/01/03 07:34:07;;;;;;;;;10.50;9.75;;;;;8.72;79.63;102510.97;5078270;27;45336;-52
2023/01/03 07:36:32;;;;;;;;;17.25;13.00;;;;;8.79;80.55;102515.91;5078570;27;45203;-50
2023/01/03 07:38:58;;;;;;;;;16.00;10.75;;;;;8.77;79.50;102517.81;5077908;27;46311;-51
2023/01/03 07:43:35;;;;;;;;;17.00;12.50;;;;;8.77;79.89;102525.78;5078336;27;45398;-51
2023/01/03 07:44:08;;;;;;;;;9.75;9.00;;;;;8.73;79.66;102519.78;5078266;27;45208;-52
2023/01/03 07:46:34;;;;;;;;;12.00;10.00;;;;;8.72;79.12;102516.28;5078368;27;45208;-53
2023/01/03 07:49:01;;;;;;;;;15.00;9.33;;;;;8.71;79.93;102519.00;5077889;27;46798;-54
2023/01/03 07:51:27;;;;;;;;;14.33;10.33;;;;;8.71;79.84;102525.16;5077988;27;45330;-53
2023/01/03 07:53:52;;;;;;;;;10.00;8.00;;;;;8.71;79.38;102521.66;5077958;27;45539;-54
2023/01/03 07:56:19;;;;;;;;;17.25;13.00;;;;;8.70;79.42;102531.44;5078233;27;45486;-51
2023/01/03 07:58:46;;;;;;;;;15.75;11.00;;;;;8.68;80.18;102524.50;5077808;27;47005;-50
2023/01/03 08:01:17;;;;;;;;;16.25;10.25;;;;;8.69;79.72;102534.19;5077939;27;45438;-51
2023/01/03 08:03:43;;;;;;;;;14.00;8.00;;;;;8.60;79.42;102524.97;5077831;27;45373;-52
2023/01/03 08:06:14;;;;;;;;;15.00;11.25;;;;;8.67;80.34;102533.41;5078123;27;45279;-51
2023/01/03 08:08:39;;;;;;;;;9.25;1.75;;;;;8.69;79.91;102527.06;5076817;27;45287;-49
2023/01/03 08:13:50;;;;;;;;;20.00;15.00;;;;;8.81;80.42;102551.19;5077829;27;45390;-47
2023/01/03 08:16:17;;;;;;;;;18.00;17.75;;;;;8.81;80.46;102554.69;5078022;27;45467;-52
2023/01/03 08:18:44;;;;;;;;;21.75;14.00;;;;;8.81;80.71;102562.66;5077459;27;47218;-53
2023/01/03 08:21:12;;;;;;;;;16.75;13.00;;;;;8.86;80.58;102555.25;5077617;27;45379;-54
2023/01/03 08:23:38;;;;;;;;;16.75;13.00;;;;;8.87;80.10;102556.97;5077620;27;45375;-51
2023/01/03 08:26:08;;;;;;;;;14.00;11.75;;;;;8.80;80.04;102550.31;5077847;27;45520;-53
2023/01/03 08:28:34;;;;;;;;;13.67;10.33;;;;;8.80;80.05;102552.94;5077598;27;45407;-52
2023/01/03 08:31:07;;;;;;;;;14.33;10.33;;;;;8.79;79.43;102547.75;5077167;27;45475;-52
2023/01/03 08:33:38;;;;;;;;;11.33;11.33;;;;;8.90;80.07;102567.41;5077378;27;45346;-50
2023/01/03 08:36:06;;;;;;;;;17.33;13.00;;;;;8.89;79.97;102559.50;5077523;27;45351;-52
2023/01/03 08:38:38;;;;;;;;;16.25;13.75;;;;;8.89;80.17;102564.81;5077014;27;45414;-52
2023/01/03 08:41:06;;;;;;;;;16.67;16.67;;;;;8.94;79.75;102560.13;5077095;27;45418;-48
2023/01/03 08:43:35;;;;;;;;;18.33;15.67;;;;;8.94;79.17;102565.44;5077068;27;45365;-52
2023/01/03 08:46:04;;;;;;;;;16.75;14.00;;;;;8.94;79.78;102573.38;5076061;27;45341;-54
2023/01/03 08:48:29;;;;;;;;;16.00;14.33;;;;;8.99;79.34;102566.84;5076787;27;46371;-52
2023/01/03 08:50:55;;;;;;;;;11.00;6.00;;;;;9.05;79.33;102580.69;5077284;27;45371;-47
2023/01/03 08:53:21;;;;;;;;;15.00;9.67;;;;;9.01;78.96;102580.03;5076279;27;45452;-50
2023/01/03 08:55:47;;;;;;;;;17.33;13.33;;;;;8.99;78.48;102572.16;5077238;27;45456;-53
2023/01/03 08:58:12;;;;;;;;;9.00;9.00;;;;;8.97;79.20;102574.06;5076448;27;46258;-51
2023/01/03 09:00:38;;;;;;;;;11.67;9.00;;;;;9.00;78.38;102570.34;5037167;28;48194;-48
2023/01/03 09:03:04;;;;;;;;;9.00;6.00;;;;;8.97;78.41;102575.84;4989544;28;45467;-50
2023/01/03 09:05:29;;;;;;;;;14.67;12.33;;;;;8.99;78.53;102571.31;5018523;28;45349;-51
2023/01/03 09:07:55;;;;;;;;;21.67;11.00;;;;;8.96;78.27;102571.47;4993747;28;51513;-52
2023/01/03 09:10:21;;;;;;;;;12.00;11.00;;;;;8.99;77.95;102577.47;5072634;27;45509;-48
2023/01/03 09:12:46;;;;;;;;;13.67;10.33;;;;;8.99;77.37;102572.16;5072667;27;45484;-50
2023/01/03 09:15:12;;;;;;;;;9.67;9.67;;;;;9.01;78.21;102590.63;5073012;27;45428;-51
2023/01/03 09:17:42;;;;;;;;;15.33;10.00;;;;;8.95;77.49;102564.47;5072129;27;46262;-49
2023/01/03 09:20:09;;;;;;;;;14.67;10.33;;;;;8.96;78.06;102568.84;5073124;27;45627;-52
2023/01/03 09:22:34;;;;;;;;;19.00;10.67;;;;;9.01;77.69;102580.03;5031717;27;45565;-50
2023/01/03 09:25:00;;;;;;;;;16.00;11.00;;;;;9.05;78.06;102580.69;5055726;27;45687;-50
2023/01/03 09:27:25;;;;;;;;;11.00;9.00;;;;;9.12;77.85;102584.69;5075280;27;53442;-49
2023/01/03 09:29:52;;;;;;;;;10.00;10.00;;;;;9.09;77.43;102584.88;5076038;27;45417;-53
2023/01/03 09:32:17;;;;;;;;;10.00;6.33;;;;;9.13;77.50;102599.69;5076030;27;45507;-51
2023/01/03 09:34:42;;;;;;;;;5.67;5.00;;;;;9.12;77.31;102587.34;5045046;27;45786;-55
2023/01/03 09:37:08;;;;;;;;;18.00;7.00;;;;;9.17;77.48;102587.94;5075373;27;47463;-51
2023/01/03 09:39:33;;;;;;;;;18.00;9.00;;;;;9.14;77.02;102585.44;5055429;27;45538;-53
2023/01/03 09:44:45;;;;;;;;;12.33;9.00;;;;;9.11;76.92;102578.53;5076375;27;45475;-54
2023/01/03 09:47:17;;;;;;;;;12.33;8.00;;;;;9.15;77.32;102588.03;5075562;27;45622;-48
2023/01/03 09:49:43;;;;;;;;;11.33;6.00;;;;;9.16;76.99;102584.41;5073289;27;45203;-48
2023/01/03 10:03:44;;;;;;;;;10.33;10.33;;;;;9.22;76.57;102599.13;5075259;27;46219;-49
2023/01/03 10:06:28;;;;;;;;;13.33;13.00;;;;;9.23;77.13;102604.34;5011626;27;45541;-53
2023/01/03 10:09:15;;;;;;;;;9.33;9.33;;;;;9.25;76.84;102598.94;5074996;27;45539;-52
2023/01/03 10:12:01;;;;;;;;;13.00;10.00;;;;;9.22;76.93;102607.09;5003311;27;45438;-52
2023/01/03 10:14:58;;;;;;;;;9.33;9.33;;;;;9.22;76.77;102602.63;5028421;28;45501;-51
2023/01/03 10:17:46;;;;;;;;;11.67;8.67;;;;;9.20;76.91;102601.88;5074971;27;45594;-51
2023/01/03 10:20:24;;;;;;;;;15.00;9.67;;;;;9.26;77.27;102605.97;4991581;27;45371;-54
2023/01/03 10:22:52;;;;;;;;;14.00;10.00;;;;;9.36;76.94;102585.88;4974687;28;45540;-51
2023/01/03 10:25:21;;;;;;;;;11.33;9.00;;;;;9.70;75.44;102613.03;4975225;28;45592;-52
2023/01/03 10:27:53;;;;;;;;;12.33;7.00;;;;;9.84;75.16;102612.16;5036674;28;45920;-52
2023/01/03 10:30:32;;;;;;;;;5.00;5.00;;;;;9.83;75.30;102613.13;4988856;27;45855;-48
2023/01/03 10:33:28;;;;;;;;;5.67;5.67;;;;;9.93;74.95;102614.22;4974389;28;45544;-49
2023/01/03 10:35:55;;;;;;;;;13.33;10.67;;;;;9.86;74.69;102615.56;4974822;28;45525;-53
2023/01/03 10:38:21;;;;;;;;;13.00;9.00;;;;;9.75;75.09;102619.75;5052913;28;45426;-53
2023/01/03 10:40:50;;;;;;;;;10.67;8.00;;;;;9.67;75.19;102606.09;5029834;27;46412;-52
2023/01/03 10:43:16;;;;;;;;;18.67;11.67;;;;;9.72;75.27;102619.09;5073762;27;45441;-51
2023/01/03 10:45:50;;;;;;;;;14.33;12.00;;;;;9.70;75.45;102616.53;5049542;27;45487;-54
2023/01/03 10:48:16;;;;;;;;;14.67;13.00;;;;;9.72;75.41;102611.97;4974837;28;45526;-51
2023/01/03 10:50:41;;;;;;;;;16.67;10.33;;;;;9.77;75.20;102608.16;4974345;28;45707;-51
2023/01/03 10:53:09;;;;;;;;;10.33;10.33;;;;;9.79;75.44;102614.25;5048392;28;45456;-50
2023/01/03 10:55:45;;;;;;;;;11.00;9.00;;;;;9.81;75.13;102609.69;5059666;27;45427;-49
2023/01/03 10:58:27;;;;;;;;;8.67;7.67;;;;;9.77;75.15;102589.56;5048770;28;45652;-52
2023/01/03 11:01:08;;;;;;;;;14.00;9.33;;;;;9.93;74.80;102603.59;5074440;27;46193;-51
2023/01/03 11:03:33;;;;;;;;;9.67;8.33;;;;;9.94;74.56;102607.94;5037280;27;45389;-52
2023/01/03 11:05:58;;;;;;;;;11.33;7.00;;;;;9.93;74.60;102603.59;4978159;28;45971;-53
2023/01/03 11:08:36;;;;;;;;;12.00;9.67;;;;;9.87;74.91;102606.66;5035576;27;45533;-49
2023/01/03 11:11:02;;;;;;;;;10.67;5.33;;;;;9.82;74.68;102585.69;5074317;28;46279;-51
2023/01/03 11:13:37;;;;;;;;;10.33;8.67;;;;;9.85;74.42;102608.53;5021425;27;45431;-50
2023/01/03 11:16:12;;;;;;;;;5.00;5.00;;;;;9.77;75.22;102608.16;5007509;27;45520;-53
2023/01/03 11:18:40;;;;;;;;;11.00;9.00;;;;;9.79;75.11;102603.63;4974621;28;45407;-51
2023/01/03 11:21:30;;;;;;;;;12.67;9.67;;;;;9.79;75.02;102600.97;4977710;28;45540;-53
2023/01/03 11:24:33;;;;;;;;;14.67;9.33;;;;;9.81;75.12;102602.56;5074217;27;45468;-49
2023/01/03 11:27:42;;;;;;;;;12.00;10.00;;;;;9.88;74.57;102595.06;4971566;28;45421;-53
2023/01/03 11:30:29;;;;;;;;;10.33;9.00;;;;;9.93;74.90;102590.31;5060719;28;46314;-53
2023/01/03 11:33:22;;;;;;;;;12.67;9.33;;;;;9.93;74.83;102588.50;5016567;27;47149;-52
2023/01/03 11:35:59;;;;;;;;;18.67;15.00;;;;;9.97;74.81;102587.34;4989878;28;45504;-51
2023/01/03 11:38:31;;;;;;;;;14.00;14.00;;;;;10.11;74.82;102575.84;4974056;28;45475;-51
2023/01/03 11:41:18;;;;;;;;;16.00;11.00;;;;;10.06;74.23;102574.41;5004590;28;45634;-54
2023/01/03 11:44:09;;;;;;;;;19.00;12.75;;;;;9.95;75.21;102575.13;5072236;27;45547;-53
2023/01/03 11:47:12;;;;;;;;;21.00;13.67;;;;;9.94;74.81;102582.25;5038671;28;45580;-53
2023/01/03 11:49:58;;;;;;;;;16.00;11.00;;;;;10.06;74.83;102582.41;5043635;28;45483;-53
2023/01/03 11:52:37;;;;;;;;;9.33;9.33;;;;;10.10;74.54;102583.91;5008725;27;45372;-54
2023/01/03 11:55:30;;;;;;;;;12.33;12.33;;;;;10.07;74.46;102578.78;5073093;27;45665;-55
2023/01/03 11:58:12;;;;;;;;;11.00;8.33;;;;;10.08;74.65;102581.34;5020566;27;45456;-53
2023/01/03 12:00:50;;;;;;;;;8.67;8.33;;;;;10.09;74.49;102572.41;5013231;28;45471;-53
2023/01/03 12:03:34;;;;;;;;;11.33;8.00;;;;;10.10;74.56;102571.47;5073695;27;45552;-50
2023/01/03 12:06:07;;;;;;;;;14.33;10.00;;;;;10.22;74.03;102562.69;5073219;28;46174;-52
2023/01/03 12:08:42;;;;;;;;;11.67;7.00;;;;;10.17;73.35;102562.16;4996067;27;45551;-54
2023/01/03 12:11:53;;;;;;;;;17.00;14.00;;;;;10.15;74.38;102574.66;5012133;27;45409;-51
2023/01/03 12:14:30;;;;;;;;;10.00;9.00;;;;;10.10;74.42;102560.81;5066099;28;45563;-50
2023/01/03 12:17:12;;;;;;;;;18.33;9.33;;;;;10.10;74.53;102544.88;4988810;27;46968;-54
2023/01/03 12:19:43;;;;;;;;;15.00;7.00;;;;;10.11;74.52;102540.41;5038291;28;45488;-52
2023/01/03 12:22:09;;;;;;;;;11.00;7.00;;;;;10.44;73.99;102546.19;4989868;28;45417;-53
2023/01/03 12:24:43;;;;;;;;;11.67;9.67;;;;;10.50;73.39;102531.66;5041874;27;45510;-49
2023/01/03 12:27:16;;;;;;;;;11.67;11.67;;;;;10.66;73.46;102532.34;5072982;27;46282;-50
2023/01/03 12:30:02;;;;;;;;;9.67;5.33;;;;;10.82;72.70;102531.28;5073440;27;45557;-54